createdAt,value
2018-07-10T00:01:53.656Z,59.12
2018-07-10T00:04:20.287Z,58.96
2018-07-10T00:06:46.936Z,59.20
2018-07-10T00:09:13.569Z,59.05
2018-07-10T00:11:40.225Z,59.31
2018-07-10T00:14:06.853Z,59.34
2018-07-10T00:16:33.493Z,59.34
2018-07-10T00:19:00.144Z,59.41
2018-07-10T00:21:26.784Z,59.41
2018-07-10T00:23:53.415Z,59.39
2018-07-10T00:26:20.059Z,59.41
2018-07-10T00:28:46.700Z,59.26
2018-07-10T00:31:13.348Z,59.45
2018-07-10T00:33:39.984Z,59.53
2018-07-10T00:36:06.639Z,59.52
2018-07-10T00:38:33.288Z,59.51
2018-07-10T00:40:59.916Z,59.48
2018-07-10T00:43:26.591Z,59.69
2018-07-10T00:45:53.217Z,59.47
2018-07-10T00:48:19.860Z,59.70
2018-07-10T00:50:46.515Z,59.67
2018-07-10T00:53:13.156Z,59.71
2018-07-10T00:55:39.798Z,59.75
2018-07-10T00:58:06.431Z,59.78
2018-07-10T01:00:33.096Z,59.69
2018-07-10T01:02:59.696Z,59.78
2018-07-10T01:05:26.344Z,59.76
2018-07-10T01:07:52.999Z,59.63
2018-07-10T01:10:19.634Z,59.89
2018-07-10T01:12:46.282Z,59.82
2018-07-10T01:15:12.930Z,59.73
2018-07-10T01:17:39.573Z,59.69
2018-07-10T01:20:06.217Z,59.89
2018-07-10T01:22:32.855Z,59.92
2018-07-10T01:24:59.512Z,59.84
2018-07-10T01:27:26.146Z,59.96
2018-07-10T01:29:52.775Z,59.88
2018-07-10T01:32:19.420Z,59.90
2018-07-10T01:34:46.061Z,59.98
2018-07-10T01:37:12.700Z,59.80
2018-07-10T01:39:39.330Z,59.82
2018-07-10T01:42:05.959Z,59.88
2018-07-10T01:44:32.807Z,59.92
2018-07-10T01:46:59.441Z,60.00
2018-07-10T01:49:26.076Z,60.06
2018-07-10T01:51:52.720Z,60.09
2018-07-10T01:54:19.464Z,60.07
2018-07-10T01:56:46.107Z,59.97
2018-07-10T01:59:12.743Z,59.93
2018-07-10T02:01:39.393Z,59.85
2018-07-10T02:04:06.034Z,60.03
2018-07-10T02:06:32.675Z,60.09
2018-07-10T02:08:59.491Z,60.01
2018-07-10T02:11:26.175Z,60.12
2018-07-10T02:13:52.829Z,60.14
2018-07-10T02:16:19.449Z,60.17
2018-07-10T02:18:46.098Z,60.31
2018-07-10T02:21:12.718Z,60.20
2018-07-10T02:23:39.369Z,60.10
2018-07-10T02:26:06.007Z,60.23
2018-07-10T02:28:32.645Z,60.25
2018-07-10T02:33:25.931Z,60.01
2018-07-10T02:35:52.577Z,60.17
2018-07-10T02:38:19.210Z,60.26
2018-07-10T02:40:45.850Z,60.31
2018-07-10T02:43:12.481Z,60.26
2018-07-10T02:45:39.116Z,60.25
2018-07-10T02:48:05.748Z,60.12
2018-07-10T02:50:32.483Z,60.07
2018-07-10T02:52:59.113Z,60.20
2018-07-10T02:55:26.618Z,60.28
2018-07-10T02:57:53.252Z,60.21
2018-07-10T03:00:19.933Z,60.23
2018-07-10T03:02:46.613Z,60.21
2018-07-10T03:05:13.294Z,60.37
2018-07-10T03:07:39.980Z,59.98
2018-07-10T03:10:06.619Z,59.58
2018-07-10T03:12:33.274Z,59.77
2018-07-10T03:14:59.919Z,59.46
2018-07-10T03:17:26.552Z,58.84
2018-07-10T03:19:53.248Z,58.75
2018-07-10T03:22:19.891Z,59.00
2018-07-10T03:24:46.539Z,58.43
2018-07-10T03:27:13.175Z,58.37
2018-07-10T03:29:39.823Z,57.74
2018-07-10T03:32:06.453Z,57.33
2018-07-10T03:34:33.117Z,57.70
2018-07-10T03:36:59.771Z,57.66
2018-07-10T03:39:26.471Z,57.12
2018-07-10T03:41:53.099Z,57.57
2018-07-10T03:44:19.731Z,56.64
2018-07-10T03:46:46.414Z,56.95
2018-07-10T03:49:13.290Z,58.02
2018-07-10T03:51:39.959Z,57.35
2018-07-10T03:54:08.903Z,56.27
2018-07-10T03:56:35.623Z,56.95
2018-07-10T03:59:02.224Z,57.03
2018-07-10T04:01:28.865Z,58.02
2018-07-10T04:03:55.501Z,57.23
2018-07-10T04:06:22.138Z,56.22
2018-07-10T04:08:48.846Z,57.65
2018-07-10T04:11:16.865Z,57.10
2018-07-10T04:13:42.116Z,55.70
2018-07-10T04:16:08.747Z,56.16
2018-07-10T04:18:35.467Z,55.67
2018-07-10T04:21:02.075Z,55.68
2018-07-10T04:23:28.757Z,55.54
2018-07-10T04:25:55.392Z,55.70
2018-07-10T04:28:22.027Z,55.70
2018-07-10T04:30:48.674Z,55.88
2018-07-10T04:33:15.314Z,55.86
2018-07-10T04:35:41.957Z,55.92
2018-07-10T04:38:08.593Z,55.49
2018-07-10T04:40:35.309Z,55.67
2018-07-10T04:43:01.919Z,55.27
2018-07-10T04:45:28.557Z,55.00
2018-07-10T04:47:55.228Z,55.45
2018-07-10T04:50:21.870Z,54.58
2018-07-10T04:52:48.506Z,55.31
2018-07-10T04:55:15.179Z,55.21
2018-07-10T04:57:41.823Z,55.19
2018-07-10T05:00:08.506Z,55.65
2018-07-10T05:02:35.145Z,55.39
2018-07-10T05:05:01.846Z,55.03
2018-07-10T05:07:28.528Z,55.01
2018-07-10T05:09:55.286Z,55.12
2018-07-10T05:12:21.980Z,54.96
2018-07-10T05:14:48.662Z,54.88
2018-07-10T05:17:15.295Z,55.09
2018-07-10T05:19:42.021Z,55.07
2018-07-10T05:22:08.667Z,54.82
2018-07-10T05:24:35.353Z,54.75
2018-07-10T05:27:02.030Z,54.49
2018-07-10T05:29:28.703Z,54.73
2018-07-10T05:31:55.340Z,54.66
2018-07-10T05:34:22.140Z,55.02
2018-07-10T05:36:48.793Z,54.89
2018-07-10T05:39:15.504Z,55.07
2018-07-10T05:41:42.262Z,55.04
2018-07-10T05:44:08.898Z,55.05
2018-07-10T05:46:35.590Z,55.15
2018-07-10T05:49:02.253Z,55.47
2018-07-10T05:51:28.912Z,55.64
2018-07-10T05:53:55.580Z,55.71
2018-07-10T05:56:22.276Z,55.44
2018-07-10T05:58:49.044Z,55.55
2018-07-10T06:01:15.605Z,55.63
2018-07-10T06:03:42.250Z,55.53
2018-07-10T06:06:08.888Z,55.40
2018-07-10T06:08:35.552Z,55.84
2018-07-10T06:11:02.192Z,55.90
2018-07-10T06:13:28.956Z,56.08
2018-07-10T06:15:55.597Z,55.77
2018-07-10T06:18:22.260Z,55.66
2018-07-10T06:20:48.895Z,55.71
2018-07-10T06:23:15.556Z,55.85
2018-07-10T06:25:42.220Z,55.54
2018-07-10T06:28:08.915Z,55.63
2018-07-10T06:30:35.518Z,55.47
2018-07-10T06:33:02.235Z,55.16
2018-07-10T06:35:28.865Z,55.09
2018-07-10T06:37:55.503Z,55.31
2018-07-10T06:42:17.303Z,55.52
2018-07-10T06:44:43.982Z,56.72
2018-07-10T06:47:10.753Z,55.69
2018-07-10T06:49:37.398Z,55.51
2018-07-10T06:52:04.128Z,55.65
2018-07-10T06:54:30.778Z,55.23
2018-07-10T06:56:57.435Z,54.36
2018-07-10T06:59:24.115Z,53.99
2018-07-10T07:01:50.753Z,53.72
2018-07-10T07:04:17.400Z,53.40
2018-07-10T07:06:44.076Z,53.32
2018-07-10T07:09:10.677Z,53.28
2018-07-10T07:11:37.330Z,53.03
2018-07-10T07:14:03.977Z,52.54
2018-07-10T07:16:30.664Z,52.32
2018-07-10T07:18:57.262Z,52.25
2018-07-10T07:21:23.906Z,51.93
2018-07-10T07:23:50.627Z,51.70
2018-07-10T07:26:17.246Z,50.94
2018-07-10T07:28:43.863Z,50.82
2018-07-10T07:31:10.509Z,51.15
2018-07-10T07:33:37.180Z,50.60
2018-07-10T07:36:03.917Z,50.11
2018-07-10T07:38:30.533Z,49.92
2018-07-10T07:40:57.168Z,50.24
2018-07-10T07:43:25.181Z,50.08
2018-07-10T07:45:50.493Z,49.96
2018-07-10T07:48:17.142Z,50.17
2018-07-10T07:50:43.792Z,49.68
2018-07-10T07:53:10.429Z,50.04
2018-07-10T07:55:37.149Z,49.42
2018-07-10T07:58:03.846Z,49.69
2018-07-10T08:00:31.670Z,49.49
2018-07-10T08:02:58.291Z,49.10
2018-07-10T08:05:26.212Z,49.36
2018-07-10T08:07:51.614Z,49.24
2018-07-10T08:10:18.242Z,48.67
2018-07-10T08:12:44.883Z,49.05
2018-07-10T08:15:11.570Z,48.69
2018-07-10T08:17:38.248Z,48.65
2018-07-10T08:20:04.970Z,48.63
2018-07-10T08:24:58.243Z,47.26
2018-07-10T08:27:24.954Z,47.79
2018-07-10T08:29:51.608Z,47.45
2018-07-10T08:32:18.249Z,47.48
2018-07-10T08:34:44.947Z,47.67
2018-07-10T08:37:11.592Z,48.13
2018-07-10T08:39:38.240Z,47.67
2018-07-10T08:42:04.896Z,47.88
2018-07-10T08:44:31.571Z,47.37
2018-07-10T08:46:58.217Z,47.73
2018-07-10T08:49:24.850Z,47.18
2018-07-10T08:51:51.506Z,47.57
2018-07-10T08:54:18.157Z,47.28
2018-07-10T08:56:44.810Z,47.04
2018-07-10T08:59:11.457Z,47.50
2018-07-10T09:01:38.105Z,47.83
2018-07-10T09:04:04.783Z,47.30
2018-07-10T09:06:31.551Z,47.40
2018-07-10T09:08:58.209Z,47.81
2018-07-10T09:11:24.861Z,47.69
2018-07-10T09:13:51.542Z,47.55
2018-07-10T09:16:18.159Z,47.65
2018-07-10T09:18:44.837Z,46.94
2018-07-10T09:21:11.534Z,46.75
2018-07-10T09:23:38.157Z,46.73
2018-07-10T09:26:05.878Z,47.63
2018-07-10T09:28:31.454Z,47.64
2018-07-10T09:30:58.108Z,47.75
2018-07-10T09:33:24.807Z,47.48
2018-07-10T09:35:51.418Z,47.62
2018-07-10T09:38:18.088Z,47.64
2018-07-10T09:40:44.703Z,47.22
2018-07-10T09:43:11.350Z,47.55
2018-07-10T09:45:37.995Z,47.30
2018-07-10T09:48:04.640Z,46.78
2018-07-10T09:50:31.342Z,47.16
2018-07-10T09:52:58.006Z,47.04
2018-07-10T09:55:24.655Z,47.04
2018-07-10T09:57:51.312Z,47.05
2018-07-10T10:00:18.000Z,46.89
2018-07-10T10:02:44.613Z,46.80
2018-07-10T10:05:11.272Z,46.76
2018-07-10T10:07:37.910Z,46.71
2018-07-10T10:10:04.575Z,46.65
2018-07-10T10:12:31.264Z,46.78
2018-07-10T10:14:58.017Z,46.91
2018-07-10T10:17:24.713Z,46.76
2018-07-10T10:19:51.797Z,46.66
2018-07-10T10:22:18.410Z,46.64
2018-07-10T10:24:45.079Z,46.25
2018-07-10T10:27:11.737Z,46.60
2018-07-10T10:29:38.447Z,46.58
2018-07-10T10:32:05.130Z,46.36
2018-07-10T10:34:36.647Z,46.18
2018-07-10T10:37:03.330Z,46.51
2018-07-10T10:39:29.987Z,45.93
2018-07-10T10:41:56.635Z,46.26
2018-07-10T10:44:23.315Z,45.94
2018-07-10T10:46:50.936Z,46.10
2018-07-10T10:49:17.591Z,46.23
2018-07-10T10:51:44.215Z,45.67
2018-07-10T10:54:10.922Z,46.00
2018-07-10T10:56:37.574Z,46.22
2018-07-10T10:59:04.217Z,45.85
2018-07-10T11:01:30.900Z,45.41
2018-07-10T11:03:57.538Z,45.45
2018-07-10T11:06:24.180Z,45.54
2018-07-10T11:08:50.922Z,45.53
2018-07-10T11:11:17.613Z,46.02
2018-07-10T11:13:44.383Z,46.00
2018-07-10T11:16:13.186Z,46.64
2018-07-10T11:18:39.941Z,47.46
2018-07-10T11:21:06.551Z,47.43
2018-07-10T11:23:33.278Z,47.19
2018-07-10T11:25:59.930Z,46.94
2018-07-10T11:28:26.566Z,46.54
2018-07-10T11:30:53.258Z,46.48
2018-07-10T11:33:19.902Z,46.19
2018-07-10T11:35:46.540Z,45.69
2018-07-10T11:38:15.880Z,45.88
2018-07-10T11:40:42.448Z,45.61
2018-07-10T11:43:09.097Z,45.46
2018-07-10T11:45:35.818Z,45.50
2018-07-10T11:48:02.508Z,45.83
2018-07-10T11:50:29.206Z,45.37
2018-07-10T11:52:56.878Z,45.44
2018-07-10T11:55:24.726Z,45.23
2018-07-10T11:57:50.185Z,45.53
2018-07-10T12:00:16.969Z,45.35
2018-07-10T12:02:43.573Z,44.73
2018-07-10T12:05:10.263Z,44.99
2018-07-10T12:07:37.111Z,45.32
2018-07-10T12:10:03.741Z,45.19
2018-07-10T12:12:30.426Z,45.19
2018-07-10T12:14:57.075Z,44.68
2018-07-10T12:17:23.716Z,45.08
2018-07-10T12:19:50.414Z,44.99
2018-07-10T12:22:17.096Z,45.06
2018-07-10T12:24:43.740Z,45.23
2018-07-10T12:27:10.415Z,44.92
2018-07-10T12:29:37.067Z,44.66
2018-07-10T12:32:03.758Z,44.77
2018-07-10T12:34:30.449Z,44.71
2018-07-10T12:36:57.222Z,44.09
2018-07-10T12:39:23.916Z,43.91
2018-07-10T12:41:50.605Z,43.49
2018-07-10T12:44:17.312Z,44.18
2018-07-10T12:46:43.984Z,44.34
2018-07-10T12:49:10.663Z,44.34
2018-07-10T12:51:37.295Z,44.23
2018-07-10T12:54:03.972Z,44.40
2018-07-10T12:56:31.532Z,44.45
2018-07-10T12:58:58.138Z,44.50
2018-07-10T13:01:24.871Z,44.41
2018-07-10T13:03:51.533Z,43.97
2018-07-10T13:06:18.179Z,44.35
2018-07-10T13:08:45.158Z,43.21
2018-07-10T13:11:11.964Z,43.82
2018-07-10T13:13:38.634Z,44.11
2018-07-10T13:16:07.726Z,43.84
2018-07-10T13:18:34.375Z,43.79
2018-07-10T13:21:00.997Z,43.89
2018-07-10T13:23:27.660Z,43.59
2018-07-10T13:25:54.350Z,43.77
2018-07-10T13:28:21.057Z,43.74
2018-07-10T13:30:47.684Z,42.98
2018-07-10T13:33:14.386Z,42.95
2018-07-10T13:35:41.075Z,43.38
2018-07-10T13:38:07.817Z,43.44
2018-07-10T13:40:34.489Z,43.40
2018-07-10T13:43:01.446Z,43.34
2018-07-10T13:45:28.106Z,43.44
2018-07-10T13:47:54.780Z,43.36
2018-07-10T13:50:21.501Z,43.30
2018-07-10T13:52:48.104Z,43.02
2018-07-10T13:55:14.852Z,42.90
2018-07-10T13:57:41.500Z,43.14
2018-07-10T14:00:08.223Z,43.04
2018-07-10T14:02:34.948Z,42.74
2018-07-10T14:05:01.599Z,43.45
2018-07-10T14:07:28.201Z,42.98
2018-07-10T14:09:54.874Z,42.97
2018-07-10T14:12:21.600Z,42.62
2018-07-10T14:14:48.228Z,42.60
2018-07-10T14:17:14.872Z,42.96
2018-07-10T14:19:41.551Z,42.76
2018-07-10T14:22:10.774Z,42.75
2018-07-10T14:24:37.910Z,42.86
2018-07-10T14:27:04.638Z,42.86
2018-07-10T14:29:31.310Z,42.81
2018-07-10T14:31:57.957Z,42.61
2018-07-10T14:34:24.596Z,42.84
2018-07-10T14:36:51.300Z,43.20
2018-07-10T14:39:17.962Z,43.51
2018-07-10T14:41:44.603Z,44.23
2018-07-10T14:44:11.348Z,44.34
2018-07-10T14:46:37.936Z,45.25
2018-07-10T14:49:04.576Z,45.27
2018-07-10T14:51:31.276Z,45.16
2018-07-10T14:53:57.910Z,44.47
2018-07-10T14:56:24.540Z,44.66
2018-07-10T14:58:51.185Z,45.94
2018-07-10T15:01:17.816Z,44.95
2018-07-10T15:03:44.575Z,45.28
2018-07-10T15:06:11.219Z,45.13
2018-07-10T15:08:37.889Z,45.13
2018-07-10T15:11:04.495Z,44.53
2018-07-10T15:13:31.175Z,44.74
2018-07-10T15:15:57.829Z,44.39
2018-07-10T15:18:24.511Z,44.02
2018-07-10T15:20:51.204Z,44.25
2018-07-10T15:23:17.870Z,44.03
2018-07-10T15:25:44.522Z,44.05
2018-07-10T15:28:11.263Z,44.05
2018-07-10T15:30:37.978Z,43.51
2018-07-10T15:33:04.698Z,44.02
2018-07-10T15:35:31.389Z,43.84
2018-07-10T15:37:58.056Z,43.12
2018-07-10T15:40:24.725Z,43.23
2018-07-10T15:42:51.332Z,43.17
2018-07-10T15:45:17.973Z,42.71
2018-07-10T15:47:44.663Z,42.75
2018-07-10T15:50:11.368Z,42.89
2018-07-10T15:52:37.983Z,42.75
2018-07-10T15:55:04.701Z,42.65
2018-07-10T15:57:31.310Z,42.51
2018-07-10T15:59:57.987Z,42.46
2018-07-10T16:02:24.620Z,42.41
2018-07-10T16:04:51.255Z,42.25
2018-07-10T16:07:17.899Z,42.32
2018-07-10T16:09:44.539Z,42.30
2018-07-10T16:12:11.240Z,42.23
2018-07-10T16:14:37.828Z,41.94
2018-07-10T16:17:04.477Z,41.88
2018-07-10T16:19:31.119Z,41.76
2018-07-10T16:21:57.810Z,41.81
2018-07-10T16:24:24.494Z,42.08
2018-07-10T16:26:51.116Z,41.79
2018-07-10T16:29:17.778Z,41.95
2018-07-10T16:31:44.495Z,41.69
2018-07-10T16:34:11.124Z,41.58
2018-07-10T16:36:37.763Z,41.77
2018-07-10T16:39:04.408Z,41.45
2018-07-10T16:41:31.091Z,41.52
2018-07-10T16:43:57.697Z,41.38
2018-07-10T16:46:24.332Z,41.42
2018-07-10T16:48:50.971Z,41.20
2018-07-10T16:51:17.607Z,41.23
2018-07-10T16:53:44.298Z,41.29
2018-07-10T16:56:10.940Z,41.45
2018-07-10T16:58:37.570Z,41.42
2018-07-10T17:01:04.228Z,41.88
2018-07-10T17:03:30.872Z,42.60
2018-07-10T17:05:57.502Z,42.96
2018-07-10T17:08:24.185Z,42.94
2018-07-10T17:10:50.821Z,42.92
2018-07-10T17:13:17.521Z,43.18
2018-07-10T17:15:44.193Z,43.66
2018-07-10T17:18:10.797Z,43.46
2018-07-10T17:20:37.507Z,43.94
2018-07-10T17:23:04.088Z,44.49
2018-07-10T17:25:30.768Z,44.31
2018-07-10T17:27:57.461Z,44.62
2018-07-10T17:30:24.135Z,44.69
2018-07-10T17:32:50.768Z,44.78
2018-07-10T17:35:17.419Z,45.24
2018-07-10T17:37:44.018Z,45.09
2018-07-10T17:40:10.663Z,45.21
2018-07-10T17:42:37.313Z,45.47
2018-07-10T17:45:03.994Z,45.63
2018-07-10T17:47:30.630Z,45.92
2018-07-10T17:49:57.315Z,45.94
2018-07-10T17:52:23.954Z,46.12
2018-07-10T17:54:50.608Z,46.26
2018-07-10T17:57:17.345Z,46.36
2018-07-10T17:59:44.023Z,46.61
2018-07-10T18:02:10.716Z,46.67
2018-07-10T18:04:37.391Z,46.68
2018-07-10T18:07:03.997Z,47.00
2018-07-10T18:09:30.677Z,47.15
2018-07-10T18:11:57.323Z,47.27
2018-07-10T18:14:23.952Z,47.54
2018-07-10T18:16:50.717Z,47.48
2018-07-10T18:19:17.274Z,47.54
2018-07-10T18:21:43.916Z,47.92
2018-07-10T18:24:10.564Z,47.85
2018-07-10T18:26:37.297Z,48.07
2018-07-10T18:29:03.937Z,48.39
2018-07-10T18:31:30.576Z,48.53
2018-07-10T18:33:57.227Z,48.46
2018-07-10T18:36:23.864Z,48.62
2018-07-10T18:38:50.530Z,48.75
2018-07-10T18:41:17.165Z,48.85
2018-07-10T18:43:43.844Z,49.02
2018-07-10T18:46:10.605Z,49.36
2018-07-10T18:48:37.275Z,49.20
2018-07-10T18:51:03.930Z,49.33
2018-07-10T18:53:30.581Z,49.32
2018-07-10T18:55:57.274Z,49.40
2018-07-10T18:58:23.909Z,49.60
2018-07-10T19:00:50.633Z,49.55
2018-07-10T19:03:17.334Z,49.62
2018-07-10T19:05:44.021Z,49.63
2018-07-10T19:08:10.665Z,49.83
2018-07-10T19:10:37.399Z,49.81
2018-07-10T19:13:03.986Z,49.87
2018-07-10T19:15:30.680Z,50.07
2018-07-10T19:17:57.311Z,50.21
2018-07-10T19:20:23.953Z,50.36
2018-07-10T19:22:50.696Z,50.34
2018-07-10T19:25:17.257Z,50.37
2018-07-10T19:27:43.895Z,50.51
2018-07-10T19:30:10.552Z,50.57
2018-07-10T19:32:37.200Z,50.70
2018-07-10T19:35:03.899Z,50.58
2018-07-10T19:37:30.532Z,50.73
2018-07-10T19:39:57.163Z,50.82
2018-07-10T19:42:23.810Z,50.92
2018-07-10T19:44:50.481Z,51.05
2018-07-10T19:47:17.160Z,50.98
2018-07-10T19:49:43.757Z,51.14
2018-07-10T19:52:10.405Z,51.20
2018-07-10T19:54:37.037Z,51.39
2018-07-10T19:57:03.675Z,51.25
2018-07-10T19:59:30.421Z,51.44
2018-07-10T20:01:57.099Z,51.43
2018-07-10T20:04:23.757Z,51.51
2018-07-10T20:06:50.397Z,51.55
2018-07-10T20:09:17.037Z,51.77
2018-07-10T20:11:43.689Z,51.66
2018-07-10T20:14:10.340Z,51.79
2018-07-10T20:16:39.297Z,51.71
2018-07-10T20:19:03.619Z,51.80
2018-07-10T20:21:30.264Z,52.00
2018-07-10T20:23:56.940Z,51.99
2018-07-10T20:26:23.541Z,52.10
2018-07-10T20:28:50.234Z,52.05
2018-07-10T20:31:16.866Z,52.26
2018-07-10T20:33:43.495Z,52.50
2018-07-10T20:36:10.141Z,52.29
2018-07-10T20:38:36.816Z,52.36
2018-07-10T20:41:03.457Z,52.41
2018-07-10T20:43:30.135Z,52.38
2018-07-10T20:45:56.962Z,52.44
2018-07-10T20:48:23.409Z,52.63
2018-07-10T20:50:50.096Z,52.61
2018-07-10T20:53:16.738Z,52.59
2018-07-10T20:55:43.435Z,52.71
2018-07-10T20:58:10.115Z,52.91
2018-07-10T21:00:36.718Z,52.75
2018-07-10T21:03:03.362Z,53.04
2018-07-10T21:05:30.050Z,53.00
2018-07-10T21:07:56.676Z,53.06
2018-07-10T21:10:23.345Z,52.90
2018-07-10T21:12:49.989Z,52.99
2018-07-10T21:15:16.622Z,53.07
2018-07-10T21:17:43.256Z,53.25
2018-07-10T21:20:09.893Z,53.13
2018-07-10T21:22:36.565Z,53.25
2018-07-10T21:25:03.265Z,53.22
2018-07-10T21:27:29.918Z,53.33
2018-07-10T21:29:56.592Z,53.34
2018-07-10T21:32:23.223Z,53.37
2018-07-10T21:34:49.872Z,53.38
2018-07-10T21:37:16.566Z,53.41
2018-07-10T21:39:43.212Z,53.49
2018-07-10T21:42:09.846Z,53.68
2018-07-10T21:44:36.533Z,53.74
2018-07-10T21:47:03.225Z,53.64
2018-07-10T21:49:29.954Z,53.79
2018-07-10T21:51:56.562Z,53.81
2018-07-10T21:54:23.251Z,53.77
2018-07-10T21:56:49.895Z,53.91
2018-07-10T21:59:16.571Z,53.91
2018-07-10T22:01:43.215Z,53.91
2018-07-10T22:04:09.861Z,53.94
2018-07-10T22:06:36.498Z,53.98
2018-07-10T22:09:04.545Z,54.01
2018-07-10T22:11:29.791Z,54.03
2018-07-10T22:13:56.435Z,53.91
2018-07-10T22:16:23.070Z,53.92
2018-07-10T22:18:49.703Z,54.04
2018-07-10T22:21:16.340Z,54.08
2018-07-10T22:23:43.026Z,54.01
2018-07-10T22:26:09.678Z,54.00
2018-07-10T22:28:36.318Z,54.24
2018-07-10T22:31:03.017Z,54.25
2018-07-10T22:33:29.689Z,54.30
2018-07-10T22:35:56.371Z,54.29
2018-07-10T22:38:23.020Z,54.36
2018-07-10T22:40:49.717Z,54.18
2018-07-10T22:43:16.358Z,54.47
2018-07-10T22:45:42.990Z,54.28
2018-07-10T22:48:09.634Z,54.33
2018-07-10T22:50:36.284Z,54.36
2018-07-10T22:53:02.967Z,54.47
2018-07-10T22:55:29.638Z,54.40
2018-07-10T22:57:56.264Z,54.53
2018-07-10T23:00:22.954Z,54.55
2018-07-10T23:02:49.646Z,54.62
2018-07-10T23:05:16.293Z,54.50
2018-07-10T23:07:42.936Z,54.52
2018-07-10T23:10:09.624Z,54.53
2018-07-10T23:12:36.292Z,54.52
2018-07-10T23:15:02.933Z,54.64
2018-07-10T23:17:29.573Z,54.69
2018-07-10T23:19:56.205Z,54.80
2018-07-10T23:22:22.914Z,54.77
2018-07-10T23:24:49.545Z,54.73
2018-07-10T23:27:16.182Z,54.72
2018-07-10T23:29:42.921Z,54.83
2018-07-10T23:32:09.504Z,54.84
2018-07-10T23:34:36.185Z,54.84
2018-07-10T23:37:02.821Z,54.64
2018-07-10T23:39:29.527Z,54.77
2018-07-10T23:41:56.166Z,54.77
2018-07-10T23:44:22.863Z,54.93
2018-07-10T23:46:49.550Z,54.94
2018-07-10T23:49:16.192Z,54.93
2018-07-10T23:51:42.910Z,54.93
2018-07-10T23:54:09.533Z,55.00
2018-07-10T23:56:36.207Z,54.97
2018-07-10T23:59:02.824Z,55.02
